Meteo Giornale » Osservazioni meteo Iran » Zabol
ore: 08:30 - Osservazioni Meteo Zabol
Lat. 31° 20' N Lon. 61° 29' E Alt. 489 metri s.l.m.
33 °C
sabbia nell'aria
Temp. 24 Ore
29 °C
44 °C
Nord-Ovest
57.3 Km/h
Dew point 9 °C
Umidità 22 %
Visibilità 4 Km
Il sole sorge alle ore 04:59
Il sole tramonta alle ore 17:48
| Data e Ora | Cielo e Fenomeni | T °C | DP °C | Um. % | Pres. hPa | Vis. km | Vento km/h | |
|---|---|---|---|---|---|---|---|---|
| Oggi h: 08:30 | sabbia nell'aria | 33 | 9 | 22 | 1005 | 4 | NO 57.3 | |
| Oggi h: 07:30 | sabbia nell'aria | 32 | 9 | 24 | 1004 | 5 | N/NO 55.5 | |
| Oggi h: 06:30 | Sereno | 30 | 9 | 27 | 1004 | 8 | NO 42.6 | |
| Oggi h: 05:30 | Sereno | 29 | 9 | 28 | 1004 | 8 | NO 35.2 | |
| Oggi h: 04:30 | Sereno | 29 | 9 | 28 | 1003 | 10 | NO 35.2 | |
| Oggi h: 03:30 | Sereno | 30 | 9 | 27 | 1003 | 9 | NO 35.2 | |
| Oggi h: 02:30 | Sereno | 31 | 9 | 25 | 1003 | 0 | NO 38.8 | |
| Oggi h: 01:30 | Sereno | 31 | 9 | 25 | 1003 | 0 | NO 46.3 | |
| Oggi h: 00:30 | Sereno | 32 | 10 | 25 | 1003 | 6 | NO 38.8 | |
| Ieri h: 23:30 | Sereno | 33 | 10 | 24 | 1003 | 6 | NO 50 | |
| Ieri h: 22:30 | Sereno | 34 | 11 | 24 | 1002 | 6 | N/NO 61.1 | |
| Ieri h: 21:30 | Sereno | 35 | 12 | 24 | 1003 | 6 | NO 50 | |
| Ieri h: 20:30 | Sereno | 37 | 13 | 23 | 1002 | 6 | NO 46.3 | |
| Ieri h: 19:30 | Sereno | 38 | 12 | 21 | 1001 | 6 | NO 46.3 | |
| Ieri h: 18:30 | Sereno | 39 | 10 | 17 | 1001 | 10 | NO 38.8 | |
| Ieri h: 17:30 | Sereno | 41 | 7 | 12 | 1001 | 10 | NO 35.2 | |
| Ieri h: 16:30 | Sereno | 43 | 6 | 10 | 1001 | 10 | NO 31.5 | |
| Ieri h: 15:30 | Sereno | 44 | 5 | 9 | 1000 | 10 | NO 31.5 | |
| Ieri h: 14:30 | Sereno | 44 | 6 | 10 | 1001 | 10 | N 29.6 | |
| Ieri h: 13:30 | Sereno | 44 | 7 | 11 | 1001 | 10 | N 29.6 | |
| Ieri h: 12:30 | Sereno | 42 | 9 | 14 | 1003 | 10 | N 35.2 | |
| Ieri h: 11:30 | Sereno | 40 | 11 | 17 | 1003 | 10 | NO 38.8 | |
| Ieri h: 10:30 | Sereno | 39 | 13 | 21 | 1004 | 7 | N/NO 42.6 | |



